TimeHST,TemperatureF,Dew PointF,Humidity,Sea Level PressureIn,VisibilityMPH,Wind Direction,Wind SpeedMPH,Gust SpeedMPH,PrecipitationIn,Events,Conditions,WindDirDegrees,DateUTC
12:20 AM,73.4,64.4,73,30.14,10.0,ENE,18.4,-,N/A,,Mostly Cloudy,70,2012-02-21 10:20:00
12:31 AM,73.4,64.4,73,30.14,10.0,East,19.6,-,N/A,,Mostly Cloudy,80,2012-02-21 10:31:00
12:53 AM,73.0,64.0,73,30.14,10.0,ENE,19.6,-,N/A,,Clear,70,2012-02-21 10:53:00
1:49 AM,73.4,64.4,73,30.14,10.0,East,15.0,-,N/A,,Mostly Cloudy,80,2012-02-21 11:49:00
1:53 AM,73.0,64.9,76,30.13,10.0,ENE,15.0,-,N/A,,Mostly Cloudy,70,2012-02-21 11:53:00
2:17 AM,73.4,64.4,73,30.12,10.0,East,17.3,-,N/A,,Mostly Cloudy,80,2012-02-21 12:17:00
2:53 AM,73.0,64.0,73,30.11,10.0,East,17.3,-,N/A,,Mostly Cloudy,80,2012-02-21 12:53:00
3:53 AM,72.0,64.0,76,30.09,10.0,East,13.8,-,N/A,,Mostly Cloudy,80,2012-02-21 13:53:00
4:07 AM,73.4,62.6,69,30.09,10.0,East,16.1,-,N/A,,Mostly Cloudy,80,2012-02-21 14:07:00
4:26 AM,71.6,64.4,78,30.10,10.0,East,17.3,-,N/A,,Mostly Cloudy,80,2012-02-21 14:26:00
4:53 AM,72.0,64.0,76,30.09,10.0,East,16.1,-,N/A,,Partly Cloudy,80,2012-02-21 14:53:00
5:53 AM,73.0,64.0,73,30.10,10.0,East,16.1,24.2,N/A,,Scattered Clouds,80,2012-02-21 15:53:00
6:53 AM,73.0,64.0,73,30.12,10.0,East,18.4,-,N/A,,Mostly Cloudy,80,2012-02-21 16:53:00
7:53 AM,73.9,64.9,73,30.14,10.0,East,19.6,-,N/A,,Overcast,80,2012-02-21 17:53:00
8:53 AM,75.0,66.0,73,30.16,10.0,East,18.4,-,N/A,,Scattered Clouds,80,2012-02-21 18:53:00
9:53 AM,77.0,66.0,69,30.17,10.0,East,18.4,-,N/A,,Mostly Cloudy,90,2012-02-21 19:53:00
10:53 AM,78.1,66.0,66,30.16,10.0,East,21.9,-,N/A,,Mostly Cloudy,90,2012-02-21 20:53:00
11:00 AM,78.8,66.2,65,30.17,10.0,East,18.4,-,N/A,,Scattered Clouds,90,2012-02-21 21:00:00
11:11 AM,78.8,66.2,65,30.17,10.0,East,18.4,-,N/A,,Mostly Cloudy,90,2012-02-21 21:11:00
11:53 AM,78.8,66.2,65,30.16,9.0,East,18.4,-,N/A,,Mostly Cloudy,100,2012-02-21 21:53:00
12:53 PM,78.1,66.9,68,30.13,10.0,East,17.3,-,N/A,,Mostly Cloudy,90,2012-02-21 22:53:00
1:53 PM,78.1,66.0,66,30.11,10.0,East,16.1,-,N/A,,Mostly Cloudy,80,2012-02-21 23:53:00
2:53 PM,75.9,64.9,69,30.09,10.0,East,21.9,-,N/A,,Overcast,90,2012-02-22 00:53:00
3:53 PM,77.0,66.0,69,30.07,9.0,East,19.6,27.6,N/A,,Partly Cloudy,90,2012-02-22 01:53:00
4:53 PM,77.0,66.9,71,30.09,8.0,ENE,15.0,-,N/A,,Scattered Clouds,70,2012-02-22 02:53:00
5:53 PM,75.0,66.0,73,30.09,9.0,East,17.3,24.2,N/A,,Overcast,80,2012-02-22 03:53:00
6:12 PM,73.4,64.4,73,30.10,9.0,East,19.6,26.5,N/A,,Overcast,80,2012-02-22 04:12:00
6:53 PM,73.9,66.0,76,30.11,10.0,East,19.6,-,N/A,,Overcast,80,2012-02-22 04:53:00
7:53 PM,73.9,64.9,73,30.13,10.0,East,19.6,25.3,N/A,,Overcast,90,2012-02-22 05:53:00
8:53 PM,73.9,66.0,76,30.13,9.0,East,21.9,-,N/A,,Overcast,80,2012-02-22 06:53:00
9:44 PM,73.4,64.4,73,30.15,10.0,East,19.6,-,N/A,,Overcast,80,2012-02-22 07:44:00
9:53 PM,73.9,64.9,73,30.15,10.0,East,20.7,-,N/A,,Overcast,80,2012-02-22 07:53:00
10:35 PM,73.4,64.4,73,30.16,10.0,East,17.3,-,N/A,,Overcast,80,2012-02-22 08:35:00
10:53 PM,73.9,64.9,73,30.15,10.0,East,16.1,-,N/A,,Overcast,80,2012-02-22 08:53:00
11:38 PM,73.4,66.2,78,30.15,9.0,ENE,18.4,23.0,N/A,,Overcast,70,2012-02-22 09:38:00
11:49 PM,73.4,64.4,73,30.15,10.0,East,15.0,-,N/A,,Overcast,80,2012-02-22 09:49:00
11:53 PM,73.9,64.9,73,30.14,10.0,East,18.4,-,N/A,,Overcast,80,2012-02-22 09:53:00